OAA weather

Shank Air Base
Logar Province, Afghanistan

Public forecast

Using degrees Celsius for public forecast. Weather courtesy of forecast.io.

METAR (pilot weather report)

Closest report is Hamid Karzai International Airport, 39.2 nm (72.6 km) N. Retrieved 2019/09/16 06:50 UTC (21 minutes ago):

OAKB 160650Z VRB04KT CAVOK 26/M11 Q1019 NOSIG RMK A3011 BLU BLU

TAF (pilot weather forecast)

Closest forecast is Hamid Karzai International Airport, 39.2 nm (72.6 km) N. Retrieved 2019/09/16 06:05 UTC (1 hour ago):

TAF OAKB 160505Z 1606/1706 VRB02KT CAVOK BECMG 1607/1609 01012KT FEW080 BECMG 1609/1610 02015G25KT PROB30 TEMPO 1610/1615 04020G35KT BECMG 1617/1618 36012KT CAVOK BECMG 1619/1620 VRB02KT